sensor_id;sensor_type;location;lat;lon;timestamp;pressure;altitude;pressure_sealevel;temperature;humidity
12969;BME280;6549;53.128;8.182;2023-02-26T00:02:16;101567.09;;;-0.99;100.00
12969;BME280;6549;53.128;8.182;2023-02-26T00:05:17;101580.59;;;-0.99;100.00
12969;BME280;6549;53.128;8.182;2023-02-26T00:08:17;101575.13;;;-0.94;100.00
12969;BME280;6549;53.128;8.182;2023-02-26T00:11:18;101576.50;;;-0.97;100.00
12969;BME280;6549;53.128;8.182;2023-02-26T00:14:18;101585.38;;;-0.96;100.00
12969;BME280;6549;53.128;8.182;2023-02-26T00:20:31;101591.94;;;-1.02;100.00
12969;BME280;6549;53.128;8.182;2023-02-26T00:23:32;101600.53;;;-1.00;100.00
12969;BME280;6549;53.128;8.182;2023-02-26T00:26:33;101598.38;;;-0.98;100.00
12969;BME280;6549;53.128;8.182;2023-02-26T00:29:34;101598.44;;;-1.03;100.00
12969;BME280;6549;53.128;8.182;2023-02-26T00:32:35;101601.41;;;-1.05;100.00
12969;BME280;6549;53.128;8.182;2023-02-26T00:35:35;101604.91;;;-1.04;100.00
12969;BME280;6549;53.128;8.182;2023-02-26T00:38:36;101610.88;;;-1.07;100.00
12969;BME280;6549;53.128;8.182;2023-02-26T00:41:37;101610.94;;;-1.12;100.00
12969;BME280;6549;53.128;8.182;2023-02-26T00:44:39;101613.09;;;-1.14;100.00
12969;BME280;6549;53.128;8.182;2023-02-26T00:48:06;101613.09;;;-1.14;100.00
12969;BME280;6549;53.128;8.182;2023-02-26T00:51:23;101616.44;;;-1.22;100.00
12969;BME280;6549;53.128;8.182;2023-02-26T00:54:29;101629.97;;;-1.27;100.00
12969;BME280;6549;53.128;8.182;2023-02-26T00:57:30;101624.06;;;-1.29;100.00
12969;BME280;6549;53.128;8.182;2023-02-26T01:00:30;101630.81;;;-1.32;100.00
12969;BME280;6549;53.128;8.182;2023-02-26T01:03:31;101630.25;;;-1.29;100.00
12969;BME280;6549;53.128;8.182;2023-02-26T01:06:34;101627.03;;;-1.31;100.00
12969;BME280;6549;53.128;8.182;2023-02-26T01:09:37;101628.66;;;-1.30;100.00
12969;BME280;6549;53.128;8.182;2023-02-26T01:12:38;101637.00;;;-1.31;100.00
12969;BME280;6549;53.128;8.182;2023-02-26T01:15:43;101632.44;;;-1.31;100.00
12969;BME280;6549;53.128;8.182;2023-02-26T01:18:49;101632.16;;;-1.29;100.00
12969;BME280;6549;53.128;8.182;2023-02-26T01:21:59;101634.31;;;-1.31;100.00
12969;BME280;6549;53.128;8.182;2023-02-26T01:25:03;101646.72;;;-1.30;100.00
12969;BME280;6549;53.128;8.182;2023-02-26T01:28:04;101636.47;;;-1.28;100.00
12969;BME280;6549;53.128;8.182;2023-02-26T01:31:14;101641.56;;;-1.27;100.00
12969;BME280;6549;53.128;8.182;2023-02-26T01:34:40;101644.97;;;-1.16;100.00
12969;BME280;6549;53.128;8.182;2023-02-26T01:37:46;101645.25;;;-1.18;100.00
12969;BME280;6549;53.128;8.182;2023-02-26T01:44:24;101652.28;;;-1.22;100.00
12969;BME280;6549;53.128;8.182;2023-02-26T01:50:40;101658.81;;;-1.28;100.00
12969;BME280;6549;53.128;8.182;2023-02-26T01:53:40;101669.91;;;-1.29;100.00
12969;BME280;6549;53.128;8.182;2023-02-26T01:56:42;101676.38;;;-1.30;100.00
12969;BME280;6549;53.128;8.182;2023-02-26T01:59:44;101674.81;;;-1.37;100.00
12969;BME280;6549;53.128;8.182;2023-02-26T02:02:46;101676.19;;;-1.39;100.00
12969;BME280;6549;53.128;8.182;2023-02-26T02:05:49;101675.72;;;-1.46;100.00
12969;BME280;6549;53.128;8.182;2023-02-26T02:08:51;101680.03;;;-1.50;100.00
12969;BME280;6549;53.128;8.182;2023-02-26T02:12:14;101687.38;;;-1.56;100.00
12969;BME280;6549;53.128;8.182;2023-02-26T02:15:25;101698.19;;;-1.61;100.00
12969;BME280;6549;53.128;8.182;2023-02-26T02:22:19;101708.16;;;-1.61;100.00
12969;BME280;6549;53.128;8.182;2023-02-26T02:29:18;101720.34;;;-1.69;100.00
12969;BME280;6549;53.128;8.182;2023-02-26T02:32:43;101722.50;;;-1.71;100.00
12969;BME280;6549;53.128;8.182;2023-02-26T02:35:57;101715.00;;;-1.74;100.00
12969;BME280;6549;53.128;8.182;2023-02-26T02:39:08;101726.03;;;-1.75;100.00
12969;BME280;6549;53.128;8.182;2023-02-26T02:42:20;101729.31;;;-1.78;100.00
12969;BME280;6549;53.128;8.182;2023-02-26T02:45:28;101728.75;;;-1.81;100.00
12969;BME280;6549;53.128;8.182;2023-02-26T02:48:33;101738.22;;;-1.83;100.00
12969;BME280;6549;53.128;8.182;2023-02-26T02:51:45;101737.69;;;-1.85;100.00
12969;BME280;6549;53.128;8.182;2023-02-26T02:54:57;101747.66;;;-1.86;100.00
12969;BME280;6549;53.128;8.182;2023-02-26T02:58:02;101744.97;;;-1.86;100.00
12969;BME280;6549;53.128;8.182;2023-02-26T03:01:06;101757.66;;;-1.86;100.00
12969;BME280;6549;53.128;8.182;2023-02-26T03:04:11;101746.56;;;-1.85;100.00
12969;BME280;6549;53.128;8.182;2023-02-26T03:07:12;101750.06;;;-1.84;100.00
12969;BME280;6549;53.128;8.182;2023-02-26T03:10:12;101764.91;;;-1.82;100.00
12969;BME280;6549;53.128;8.182;2023-02-26T03:13:18;101763.78;;;-1.81;100.00
12969;BME280;6549;53.128;8.182;2023-02-26T03:26:13;101778.91;;;-1.90;100.00
12969;BME280;6549;53.128;8.182;2023-02-26T03:29:45;101787.31;;;-1.91;100.00
12969;BME280;6549;53.128;8.182;2023-02-26T03:33:07;101793.75;;;-1.87;100.00
12969;BME280;6549;53.128;8.182;2023-02-26T03:36:17;101799.13;;;-1.87;100.00
12969;BME280;6549;53.128;8.182;2023-02-26T03:39:28;101801.56;;;-1.91;100.00
12969;BME280;6549;53.128;8.182;2023-02-26T03:42:39;101801.31;;;-1.94;100.00
12969;BME280;6549;53.128;8.182;2023-02-26T03:45:42;101802.66;;;-1.97;100.00
12969;BME280;6549;53.128;8.182;2023-02-26T03:48:47;101808.31;;;-1.98;100.00
12969;BME280;6549;53.128;8.182;2023-02-26T03:51:50;101813.19;;;-2.00;100.00
12969;BME280;6549;53.128;8.182;2023-02-26T03:54:58;101816.38;;;-1.93;100.00
12969;BME280;6549;53.128;8.182;2023-02-26T03:58:00;101833.13;;;-1.96;100.00
12969;BME280;6549;53.128;8.182;2023-02-26T04:01:07;101828.81;;;-1.97;100.00
12969;BME280;6549;53.128;8.182;2023-02-26T04:04:12;101840.13;;;-1.95;100.00
12969;BME280;6549;53.128;8.182;2023-02-26T04:07:16;101843.88;;;-1.96;100.00
12969;BME280;6549;53.128;8.182;2023-02-26T04:10:19;101847.09;;;-1.94;100.00
12969;BME280;6549;53.128;8.182;2023-02-26T04:13:21;101856.81;;;-1.98;100.00
12969;BME280;6549;53.128;8.182;2023-02-26T04:16:22;101855.22;;;-1.99;100.00
12969;BME280;6549;53.128;8.182;2023-02-26T04:19:22;101870.81;;;-1.96;100.00
12969;BME280;6549;53.128;8.182;2023-02-26T04:22:23;101868.94;;;-1.96;100.00
12969;BME280;6549;53.128;8.182;2023-02-26T04:25:23;101863.25;;;-1.94;100.00
12969;BME280;6549;53.128;8.182;2023-02-26T04:28:23;101872.44;;;-1.95;100.00
12969;BME280;6549;53.128;8.182;2023-02-26T04:31:24;101872.44;;;-1.95;100.00
12969;BME280;6549;53.128;8.182;2023-02-26T04:34:24;101874.59;;;-1.97;100.00
12969;BME280;6549;53.128;8.182;2023-02-26T04:37:24;101874.06;;;-1.99;100.00
12969;BME280;6549;53.128;8.182;2023-02-26T04:40:25;101888.31;;;-1.99;100.00
12969;BME280;6549;53.128;8.182;2023-02-26T04:43:26;101888.63;;;-2.00;100.00
12969;BME280;6549;53.128;8.182;2023-02-26T04:46:27;101902.59;;;-2.03;100.00
12969;BME280;6549;53.128;8.182;2023-02-26T04:49:27;101895.63;;;-2.04;100.00
12969;BME280;6549;53.128;8.182;2023-02-26T04:52:27;101900.72;;;-2.03;100.00
12969;BME280;6549;53.128;8.182;2023-02-26T04:55:28;101908.00;;;-2.03;100.00
12969;BME280;6549;53.128;8.182;2023-02-26T04:58:28;101914.75;;;-2.06;100.00
12969;BME280;6549;53.128;8.182;2023-02-26T05:01:28;101919.88;;;-2.09;100.00
12969;BME280;6549;53.128;8.182;2023-02-26T05:04:29;101915.81;;;-2.12;100.00
12969;BME280;6549;53.128;8.182;2023-02-26T05:07:29;101922.56;;;-2.14;100.00
12969;BME280;6549;53.128;8.182;2023-02-26T05:10:29;101923.38;;;-2.19;100.00
12969;BME280;6549;53.128;8.182;2023-02-26T05:13:30;101927.16;;;-2.15;100.00
12969;BME280;6549;53.128;8.182;2023-02-26T05:16:30;101934.97;;;-2.18;100.00
12969;BME280;6549;53.128;8.182;2023-02-26T05:19:30;101945.19;;;-2.20;100.00
12969;BME280;6549;53.128;8.182;2023-02-26T05:22:31;101947.38;;;-2.22;100.00
12969;BME280;6549;53.128;8.182;2023-02-26T05:25:31;101951.69;;;-2.27;100.00
12969;BME280;6549;53.128;8.182;2023-02-26T05:28:31;101945.22;;;-2.31;100.00
12969;BME280;6549;53.128;8.182;2023-02-26T05:31:33;101952.75;;;-2.33;100.00
12969;BME280;6549;53.128;8.182;2023-02-26T05:34:33;101953.00;;;-2.34;100.00
12969;BME280;6549;53.128;8.182;2023-02-26T05:37:33;101949.53;;;-2.35;100.00
12969;BME280;6549;53.128;8.182;2023-02-26T05:40:34;101951.66;;;-2.32;100.00
12969;BME280;6549;53.128;8.182;2023-02-26T05:43:34;101957.88;;;-2.31;100.00
12969;BME280;6549;53.128;8.182;2023-02-26T05:46:35;101964.59;;;-2.29;100.00
12969;BME280;6549;53.128;8.182;2023-02-26T05:49:35;101971.34;;;-2.26;100.00
12969;BME280;6549;53.128;8.182;2023-02-26T05:52:36;101965.66;;;-2.24;100.00
12969;BME280;6549;53.128;8.182;2023-02-26T05:55:36;101971.03;;;-2.24;100.00
12969;BME280;6549;53.128;8.182;2023-02-26T05:58:37;101979.41;;;-2.26;100.00
12969;BME280;6549;53.128;8.182;2023-02-26T06:01:37;101981.81;;;-2.24;100.00
12969;BME280;6549;53.128;8.182;2023-02-26T06:04:38;101984.00;;;-2.21;100.00
12969;BME280;6549;53.128;8.182;2023-02-26T06:07:38;101996.34;;;-2.20;100.00
12969;BME280;6549;53.128;8.182;2023-02-26T06:10:38;102004.97;;;-2.18;100.00
12969;BME280;6549;53.128;8.182;2023-02-26T06:13:39;102014.69;;;-2.17;100.00
12969;BME280;6549;53.128;8.182;2023-02-26T06:16:39;102014.13;;;-2.14;100.00
12969;BME280;6549;53.128;8.182;2023-02-26T06:19:40;102007.13;;;-2.15;100.00
12969;BME280;6549;53.128;8.182;2023-02-26T06:22:40;102018.97;;;-2.16;100.00
12969;BME280;6549;53.128;8.182;2023-02-26T06:25:41;102022.72;;;-2.12;100.00
12969;BME280;6549;53.128;8.182;2023-02-26T06:28:41;102023.84;;;-2.13;100.00
12969;BME280;6549;53.128;8.182;2023-02-26T06:31:41;102028.94;;;-2.12;100.00
12969;BME280;6549;53.128;8.182;2023-02-26T06:34:42;102034.06;;;-2.10;100.00
12969;BME280;6549;53.128;8.182;2023-02-26T06:37:42;102033.25;;;-2.11;100.00
12969;BME280;6549;53.128;8.182;2023-02-26T06:40:43;102042.94;;;-2.10;100.00
12969;BME280;6549;53.128;8.182;2023-02-26T06:43:43;102040.78;;;-2.08;100.00
12969;BME280;6549;53.128;8.182;2023-02-26T06:46:44;102045.34;;;-2.03;100.00
12969;BME280;6549;53.128;8.182;2023-02-26T06:49:44;102053.72;;;-2.00;100.00
12969;BME280;6549;53.128;8.182;2023-02-26T06:52:44;102049.69;;;-1.97;100.00
12969;BME280;6549;53.128;8.182;2023-02-26T06:55:45;102049.69;;;-1.92;100.00
12969;BME280;6549;53.128;8.182;2023-02-26T06:58:46;102062.06;;;-1.91;100.00
12969;BME280;6549;53.128;8.182;2023-02-26T07:01:46;102062.88;;;-1.91;100.00
12969;BME280;6549;53.128;8.182;2023-02-26T07:04:47;102067.47;;;-1.86;100.00
12969;BME280;6549;53.128;8.182;2023-02-26T07:07:47;102068.81;;;-1.84;100.00
12969;BME280;6549;53.128;8.182;2023-02-26T07:10:47;102079.84;;;-1.80;100.00
12969;BME280;6549;53.128;8.182;2023-02-26T07:13:48;102078.50;;;-1.77;100.00
12969;BME280;6549;53.128;8.182;2023-02-26T07:16:50;102086.03;;;-1.74;100.00
12969;BME280;6549;53.128;8.182;2023-02-26T07:19:51;102086.84;;;-1.69;100.00
12969;BME280;6549;53.128;8.182;2023-02-26T07:22:52;102091.94;;;-1.62;100.00
12969;BME280;6549;53.128;8.182;2023-02-26T07:25:52;102098.16;;;-1.57;100.00
12969;BME280;6549;53.128;8.182;2023-02-26T07:28:52;102101.38;;;-1.50;100.00
12969;BME280;6549;53.128;8.182;2023-02-26T07:31:52;102105.13;;;-1.41;100.00
12969;BME280;6549;53.128;8.182;2023-02-26T07:34:53;102109.16;;;-1.28;100.00
12969;BME280;6549;53.128;8.182;2023-02-26T07:37:53;102123.97;;;-1.15;100.00
12969;BME280;6549;53.128;8.182;2023-02-26T07:40:54;102121.78;;;-1.03;100.00
12969;BME280;6549;53.128;8.182;2023-02-26T07:43:55;102130.63;;;-0.93;100.00
12969;BME280;6549;53.128;8.182;2023-02-26T07:46:55;102131.97;;;-0.80;100.00
12969;BME280;6549;53.128;8.182;2023-02-26T07:49:57;102134.59;;;-0.70;100.00
12969;BME280;6549;53.128;8.182;2023-02-26T07:52:57;102137.03;;;-0.14;100.00
12969;BME280;6549;53.128;8.182;2023-02-26T07:55:58;102132.91;;;0.90;100.00
12969;BME280;6549;53.128;8.182;2023-02-26T07:58:58;102137.16;;;3.24;100.00
12969;BME280;6549;53.128;8.182;2023-02-26T08:01:58;102143.69;;;4.97;100.00
12969;BME280;6549;53.128;8.182;2023-02-26T08:04:59;102139.75;;;6.46;92.80
12969;BME280;6549;53.128;8.182;2023-02-26T08:07:59;102143.06;;;7.24;77.59
12969;BME280;6549;53.128;8.182;2023-02-26T08:11:01;102146.41;;;7.59;71.66
12969;BME280;6549;53.128;8.182;2023-02-26T08:14:01;102159.69;;;7.69;71.56
12969;BME280;6549;53.128;8.182;2023-02-26T08:17:02;102161.75;;;7.51;65.22
12969;BME280;6549;53.128;8.182;2023-02-26T08:20:02;102158.44;;;7.37;67.72
12969;BME280;6549;53.128;8.182;2023-02-26T08:23:04;102160.97;;;7.42;67.58
12969;BME280;6549;53.128;8.182;2023-02-26T08:26:06;102164.06;;;7.03;66.99
12969;BME280;6549;53.128;8.182;2023-02-26T08:29:07;102164.16;;;6.60;71.00
12969;BME280;6549;53.128;8.182;2023-02-26T08:32:08;102177.06;;;7.06;71.41
12969;BME280;6549;53.128;8.182;2023-02-26T08:35:09;102181.22;;;6.22;71.79
12969;BME280;6549;53.128;8.182;2023-02-26T08:38:09;102182.66;;;6.03;72.05
12969;BME280;6549;53.128;8.182;2023-02-26T08:41:10;102192.91;;;6.66;71.37
12969;BME280;6549;53.128;8.182;2023-02-26T08:44:10;102191.19;;;6.27;71.58
12969;BME280;6549;53.128;8.182;2023-02-26T08:47:11;102195.81;;;6.35;69.52
12969;BME280;6549;53.128;8.182;2023-02-26T08:50:11;102200.97;;;6.19;69.23
12969;BME280;6549;53.128;8.182;2023-02-26T08:53:12;102212.22;;;6.35;68.79
12969;BME280;6549;53.128;8.182;2023-02-26T08:56:12;102215.72;;;6.61;68.37
12969;BME280;6549;53.128;8.182;2023-02-26T08:59:13;102215.06;;;5.96;70.54
12969;BME280;6549;53.128;8.182;2023-02-26T09:02:14;102217.50;;;6.31;70.58
12969;BME280;6549;53.128;8.182;2023-02-26T09:05:14;102229.22;;;6.06;70.37
12969;BME280;6549;53.128;8.182;2023-02-26T09:08:15;102234.19;;;6.13;72.97
12969;BME280;6549;53.128;8.182;2023-02-26T09:11:15;102242.63;;;5.46;74.84
12969;BME280;6549;53.128;8.182;2023-02-26T09:14:15;102242.63;;;5.85;74.83
12969;BME280;6549;53.128;8.182;2023-02-26T09:17:16;102254.84;;;5.49;73.49
12969;BME280;6549;53.128;8.182;2023-02-26T09:20:16;102255.91;;;5.30;75.08
12969;BME280;6549;53.128;8.182;2023-02-26T09:23:17;102244.31;;;5.25;73.71
12969;BME280;6549;53.128;8.182;2023-02-26T09:26:17;102256.44;;;5.50;73.47
12969;BME280;6549;53.128;8.182;2023-02-26T09:29:18;102252.63;;;5.59;75.46
12969;BME280;6549;53.128;8.182;2023-02-26T09:32:19;102252.91;;;5.49;70.43
12969;BME280;6549;53.128;8.182;2023-02-26T09:35:19;102266.16;;;5.33;70.23
12969;BME280;6549;53.128;8.182;2023-02-26T09:38:19;102262.56;;;4.93;67.64
12969;BME280;6549;53.128;8.182;2023-02-26T09:41:24;102263.06;;;4.95;67.49
12969;BME280;6549;53.128;8.182;2023-02-26T09:44:29;102269.44;;;4.91;65.52
12969;BME280;6549;53.128;8.182;2023-02-26T09:47:39;102275.13;;;5.03;66.51
12969;BME280;6549;53.128;8.182;2023-02-26T09:50:49;102277.69;;;5.00;65.95
12969;BME280;6549;53.128;8.182;2023-02-26T09:53:50;102281.75;;;5.11;66.25
12969;BME280;6549;53.128;8.182;2023-02-26T09:56:53;102290.88;;;5.37;67.53
12969;BME280;6549;53.128;8.182;2023-02-26T09:59:56;102301.56;;;5.56;65.38
12969;BME280;6549;53.128;8.182;2023-02-26T10:03:08;102301.91;;;6.02;63.09
12969;BME280;6549;53.128;8.182;2023-02-26T10:06:17;102309.09;;;5.28;64.81
12969;BME280;6549;53.128;8.182;2023-02-26T10:12:58;102312.75;;;5.54;65.08
12969;BME280;6549;53.128;8.182;2023-02-26T10:16:10;102313.09;;;5.00;65.34
12969;BME280;6549;53.128;8.182;2023-02-26T10:19:19;102327.06;;;5.29;64.98
12969;BME280;6549;53.128;8.182;2023-02-26T10:25:27;102326.78;;;5.61;64.34
12969;BME280;6549;53.128;8.182;2023-02-26T10:31:58;102334.66;;;5.71;63.39
12969;BME280;6549;53.128;8.182;2023-02-26T10:35:15;102334.28;;;5.56;64.74
12969;BME280;6549;53.128;8.182;2023-02-26T10:38:19;102340.31;;;5.44;65.68
12969;BME280;6549;53.128;8.182;2023-02-26T10:41:24;102346.03;;;5.65;66.81
12969;BME280;6549;53.128;8.182;2023-02-26T10:44:39;102354.56;;;5.19;67.16
12969;BME280;6549;53.128;8.182;2023-02-26T10:47:55;102352.88;;;5.31;68.02
12969;BME280;6549;53.128;8.182;2023-02-26T10:51:00;102353.63;;;5.76;67.78
12969;BME280;6549;53.128;8.182;2023-02-26T10:57:27;102351.56;;;5.51;67.74
12969;BME280;6549;53.128;8.182;2023-02-26T11:00:29;102355.81;;;5.66;69.21
12969;BME280;6549;53.128;8.182;2023-02-26T11:03:40;102357.66;;;5.48;68.52
12969;BME280;6549;53.128;8.182;2023-02-26T11:06:48;102358.53;;;4.90;69.11
12969;BME280;6549;53.128;8.182;2023-02-26T11:09:50;102353.78;;;4.60;70.56
12969;BME280;6549;53.128;8.182;2023-02-26T11:12:51;102362.16;;;4.86;70.68
12969;BME280;6549;53.128;8.182;2023-02-26T11:15:55;102365.56;;;5.14;70.53
12969;BME280;6549;53.128;8.182;2023-02-26T11:18:58;102366.50;;;5.09;70.21
12969;BME280;6549;53.128;8.182;2023-02-26T11:22:00;102358.47;;;4.82;70.56
12969;BME280;6549;53.128;8.182;2023-02-26T11:25:03;102356.13;;;4.39;72.55
12969;BME280;6549;53.128;8.182;2023-02-26T11:31:25;102359.66;;;3.85;74.39
12969;BME280;6549;53.128;8.182;2023-02-26T11:34:25;102355.72;;;3.91;75.81
12969;BME280;6549;53.128;8.182;2023-02-26T11:37:33;102359.06;;;4.16;76.79
12969;BME280;6549;53.128;8.182;2023-02-26T11:40:41;102358.66;;;4.22;77.02
12969;BME280;6549;53.128;8.182;2023-02-26T11:43:47;102353.59;;;4.43;76.49
12969;BME280;6549;53.128;8.182;2023-02-26T11:46:55;102357.00;;;4.48;74.66
12969;BME280;6549;53.128;8.182;2023-02-26T11:50:01;102347.56;;;4.19;77.13
12969;BME280;6549;53.128;8.182;2023-02-26T11:53:06;102347.56;;;4.46;80.99
12969;BME280;6549;53.128;8.182;2023-02-26T11:56:22;102348.88;;;5.29;78.19
12969;BME280;6549;53.128;8.182;2023-02-26T11:59:24;102342.66;;;5.99;75.06
12969;BME280;6549;53.128;8.182;2023-02-26T12:02:30;102343.97;;;6.01;72.88
12969;BME280;6549;53.128;8.182;2023-02-26T12:05:35;102332.88;;;5.98;70.91
12969;BME280;6549;53.128;8.182;2023-02-26T12:08:37;102337.13;;;6.21;68.17
12969;BME280;6549;53.128;8.182;2023-02-26T12:11:48;102328.06;;;5.95;68.34
12969;BME280;6549;53.128;8.182;2023-02-26T12:15:05;102324.44;;;6.25;69.64
12969;BME280;6549;53.128;8.182;2023-02-26T12:21:54;102332.22;;;6.83;66.07
12969;BME280;6549;53.128;8.182;2023-02-26T12:28:18;102330.41;;;7.30;64.48
12969;BME280;6549;53.128;8.182;2023-02-26T12:35:07;102333.97;;;7.05;64.63
12969;BME280;6549;53.128;8.182;2023-02-26T12:48:41;102344.41;;;4.88;70.45
12969;BME280;6549;53.128;8.182;2023-02-26T13:08:25;102342.16;;;5.57;72.23
12969;BME280;6549;53.128;8.182;2023-02-26T13:11:43;102339.75;;;5.64;70.32
12969;BME280;6549;53.128;8.182;2023-02-26T13:14:59;102337.81;;;5.56;72.42
12969;BME280;6549;53.128;8.182;2023-02-26T13:18:14;102339.00;;;5.19;74.10
12969;BME280;6549;53.128;8.182;2023-02-26T13:21:24;102347.19;;;5.19;76.65
12969;BME280;6549;53.128;8.182;2023-02-26T13:24:42;102342.19;;;5.35;78.12
12969;BME280;6549;53.128;8.182;2023-02-26T13:27:44;102333.06;;;5.39;76.32
12969;BME280;6549;53.128;8.182;2023-02-26T13:30:49;102340.69;;;5.29;75.74
12969;BME280;6549;53.128;8.182;2023-02-26T13:33:51;102338.25;;;5.50;73.80
12969;BME280;6549;53.128;8.182;2023-02-26T13:36:53;102338.91;;;5.86;74.02
12969;BME280;6549;53.128;8.182;2023-02-26T13:47:12;102340.41;;;5.61;72.30
12969;BME280;6549;53.128;8.182;2023-02-26T13:50:23;102330.97;;;5.14;73.82
12969;BME280;6549;53.128;8.182;2023-02-26T13:59:46;102326.72;;;6.31;73.50
12969;BME280;6549;53.128;8.182;2023-02-26T14:05:53;102330.44;;;5.88;72.13
12969;BME280;6549;53.128;8.182;2023-02-26T14:08:55;102328.00;;;5.55;74.52
12969;BME280;6549;53.128;8.182;2023-02-26T14:12:00;102334.81;;;5.35;73.12
12969;BME280;6549;53.128;8.182;2023-02-26T14:21:51;102332.16;;;5.00;76.51
12969;BME280;6549;53.128;8.182;2023-02-26T14:31:19;102336.69;;;5.26;78.87
12969;BME280;6549;53.128;8.182;2023-02-26T14:37:23;102336.78;;;5.43;73.73
12969;BME280;6549;53.128;8.182;2023-02-26T14:40:24;102333.94;;;5.26;74.08
12969;BME280;6549;53.128;8.182;2023-02-26T14:43:35;102339.00;;;5.19;77.33
12969;BME280;6549;53.128;8.182;2023-02-26T14:46:36;102344.16;;;5.21;78.45
12969;BME280;6549;53.128;8.182;2023-02-26T14:49:43;102347.13;;;5.33;81.19
12969;BME280;6549;53.128;8.182;2023-02-26T14:56:10;102343.28;;;5.34;87.79
12969;BME280;6549;53.128;8.182;2023-02-26T15:03:01;102340.84;;;5.55;89.35
12969;BME280;6549;53.128;8.182;2023-02-26T15:06:21;102351.00;;;5.40;89.17
12969;BME280;6549;53.128;8.182;2023-02-26T15:09:52;102352.75;;;5.36;86.44
12969;BME280;6549;53.128;8.182;2023-02-26T15:16:55;102352.81;;;5.01;90.98
12969;BME280;6549;53.128;8.182;2023-02-26T15:20:23;102353.31;;;4.80;90.00
12969;BME280;6549;53.128;8.182;2023-02-26T15:23:39;102352.09;;;4.86;92.06
12969;BME280;6549;53.128;8.182;2023-02-26T15:26:52;102348.28;;;4.74;93.78
12969;BME280;6549;53.128;8.182;2023-02-26T15:29:53;102351.44;;;4.67;91.62
12969;BME280;6549;53.128;8.182;2023-02-26T15:32:59;102348.53;;;4.50;91.95
12969;BME280;6549;53.128;8.182;2023-02-26T15:36:00;102352.75;;;4.56;90.87
12969;BME280;6549;53.128;8.182;2023-02-26T15:39:06;102360.91;;;4.56;86.99
12969;BME280;6549;53.128;8.182;2023-02-26T15:42:08;102357.66;;;4.32;85.23
12969;BME280;6549;53.128;8.182;2023-02-26T15:45:26;102364.38;;;4.21;87.62
12969;BME280;6549;53.128;8.182;2023-02-26T15:48:30;102366.53;;;4.10;88.36
12969;BME280;6549;53.128;8.182;2023-02-26T15:51:31;102367.44;;;3.92;88.76
12969;BME280;6549;53.128;8.182;2023-02-26T15:54:37;102367.41;;;3.78;91.00
12969;BME280;6549;53.128;8.182;2023-02-26T15:57:39;102367.50;;;3.73;92.94
12969;BME280;6549;53.128;8.182;2023-02-26T16:00:41;102364.47;;;3.61;92.93
12969;BME280;6549;53.128;8.182;2023-02-26T16:03:41;102366.47;;;3.55;93.61
12969;BME280;6549;53.128;8.182;2023-02-26T16:06:45;102366.88;;;3.49;97.31
12969;BME280;6549;53.128;8.182;2023-02-26T16:09:52;102369.88;;;3.47;99.20
12969;BME280;6549;53.128;8.182;2023-02-26T16:12:54;102374.50;;;3.47;99.50
12969;BME280;6549;53.128;8.182;2023-02-26T16:15:58;102374.78;;;3.45;100.00
12969;BME280;6549;53.128;8.182;2023-02-26T16:19:00;102380.69;;;3.34;100.00
12969;BME280;6549;53.128;8.182;2023-02-26T16:22:11;102382.53;;;3.20;100.00
12969;BME280;6549;53.128;8.182;2023-02-26T16:25:23;102383.50;;;3.10;100.00
12969;BME280;6549;53.128;8.182;2023-02-26T16:28:35;102388.81;;;3.01;100.00
12969;BME280;6549;53.128;8.182;2023-02-26T16:31:45;102389.94;;;3.00;100.00
12969;BME280;6549;53.128;8.182;2023-02-26T16:34:50;102393.81;;;2.94;100.00
12969;BME280;6549;53.128;8.182;2023-02-26T16:37:53;102394.47;;;2.86;100.00
12969;BME280;6549;53.128;8.182;2023-02-26T16:41:07;102404.38;;;2.77;100.00
12969;BME280;6549;53.128;8.182;2023-02-26T16:44:37;102404.50;;;2.67;100.00
12969;BME280;6549;53.128;8.182;2023-02-26T16:47:38;102410.47;;;2.69;100.00
12969;BME280;6549;53.128;8.182;2023-02-26T16:50:39;102411.41;;;2.59;100.00
12969;BME280;6549;53.128;8.182;2023-02-26T16:53:49;102412.56;;;2.53;100.00
12969;BME280;6549;53.128;8.182;2023-02-26T16:56:59;102420.47;;;2.50;100.00
12969;BME280;6549;53.128;8.182;2023-02-26T17:00:05;102417.81;;;2.45;100.00
12969;BME280;6549;53.128;8.182;2023-02-26T17:03:13;102419.00;;;2.39;100.00
12969;BME280;6549;53.128;8.182;2023-02-26T17:06:16;102416.91;;;2.31;100.00
12969;BME280;6549;53.128;8.182;2023-02-26T17:10:16;102427.03;;;2.25;100.00
12969;BME280;6549;53.128;8.182;2023-02-26T17:12:48;102439.78;;;2.24;100.00
12969;BME280;6549;53.128;8.182;2023-02-26T17:15:49;102440.09;;;2.18;100.00
12969;BME280;6549;53.128;8.182;2023-02-26T17:18:50;102442.34;;;2.11;100.00
12969;BME280;6549;53.128;8.182;2023-02-26T17:21:54;102442.94;;;2.08;100.00
12969;BME280;6549;53.128;8.182;2023-02-26T17:24:56;102444.88;;;2.02;100.00
12969;BME280;6549;53.128;8.182;2023-02-26T17:27:57;102443.84;;;1.98;100.00
12969;BME280;6549;53.128;8.182;2023-02-26T17:30:58;102451.22;;;1.93;100.00
12969;BME280;6549;53.128;8.182;2023-02-26T17:33:58;102449.91;;;1.90;100.00
12969;BME280;6549;53.128;8.182;2023-02-26T17:36:58;102450.16;;;1.89;100.00
12969;BME280;6549;53.128;8.182;2023-02-26T17:40:15;102453.47;;;1.86;100.00
12969;BME280;6549;53.128;8.182;2023-02-26T17:43:16;102453.50;;;1.80;100.00
12969;BME280;6549;53.128;8.182;2023-02-26T17:46:17;102465.19;;;1.76;100.00
12969;BME280;6549;53.128;8.182;2023-02-26T17:49:17;102458.44;;;1.73;100.00
12969;BME280;6549;53.128;8.182;2023-02-26T17:52:18;102479.38;;;1.68;100.00
12969;BME280;6549;53.128;8.182;2023-02-26T17:55:18;102469.06;;;1.65;100.00
12969;BME280;6549;53.128;8.182;2023-02-26T17:58:36;102471.28;;;1.63;100.00
12969;BME280;6549;53.128;8.182;2023-02-26T18:01:38;102472.94;;;1.59;100.00
12969;BME280;6549;53.128;8.182;2023-02-26T18:04:38;102472.97;;;1.54;100.00
12969;BME280;6549;53.128;8.182;2023-02-26T18:07:39;102486.78;;;1.52;100.00
12969;BME280;6549;53.128;8.182;2023-02-26T18:10:39;102491.72;;;1.45;100.00
12969;BME280;6549;53.128;8.182;2023-02-26T18:13:40;102489.28;;;1.44;100.00
12969;BME280;6549;53.128;8.182;2023-02-26T18:16:41;102488.22;;;1.40;100.00
12969;BME280;6549;53.128;8.182;2023-02-26T18:19:44;102490.97;;;1.34;100.00
12969;BME280;6549;53.128;8.182;2023-02-26T18:22:45;102492.34;;;1.32;100.00